sensor_id;sensor_type;location;lat;lon;timestamp;P1;durP1;ratioP1;P2;durP2;ratioP2
32824;SDS011;51060;42.640;24.356;2022-09-28T00:01:49;20.43;;;14.50;;
32824;SDS011;51060;42.640;24.356;2022-09-28T00:04:16;19.53;;;15.67;;
32824;SDS011;51060;42.640;24.356;2022-09-28T00:06:42;14.77;;;11.77;;
32824;SDS011;51060;42.640;24.356;2022-09-28T00:09:08;14.27;;;12.70;;
32824;SDS011;51060;42.640;24.356;2022-09-28T00:11:34;10.60;;;8.77;;
32824;SDS011;51060;42.640;24.356;2022-09-28T00:14:00;9.93;;;8.10;;
32824;SDS011;51060;42.640;24.356;2022-09-28T00:16:31;6.03;;;3.90;;
32824;SDS011;51060;42.640;24.356;2022-09-28T00:18:58;6.27;;;4.27;;
32824;SDS011;51060;42.640;24.356;2022-09-28T00:21:28;5.90;;;3.20;;
32824;SDS011;51060;42.640;24.356;2022-09-28T00:23:57;9.40;;;4.07;;
32824;SDS011;51060;42.640;24.356;2022-09-28T00:26:41;5.40;;;4.10;;
32824;SDS011;51060;42.640;24.356;2022-09-28T00:31:43;8.10;;;4.87;;
32824;SDS011;51060;42.640;24.356;2022-09-28T00:34:08;5.37;;;3.70;;
32824;SDS011;51060;42.640;24.356;2022-09-28T00:36:34;5.77;;;3.60;;
32824;SDS011;51060;42.640;24.356;2022-09-28T00:39:04;5.93;;;3.70;;
32824;SDS011;51060;42.640;24.356;2022-09-28T00:41:32;5.80;;;4.03;;
32824;SDS011;51060;42.640;24.356;2022-09-28T00:46:49;4.73;;;3.93;;
32824;SDS011;51060;42.640;24.356;2022-09-28T00:49:18;4.70;;;4.20;;
32824;SDS011;51060;42.640;24.356;2022-09-28T00:51:46;4.10;;;3.53;;
32824;SDS011;51060;42.640;24.356;2022-09-28T00:54:13;6.87;;;3.87;;
32824;SDS011;51060;42.640;24.356;2022-09-28T00:56:41;4.17;;;3.70;;
32824;SDS011;51060;42.640;24.356;2022-09-28T00:59:08;5.53;;;4.20;;
32824;SDS011;51060;42.640;24.356;2022-09-28T01:01:35;5.07;;;4.07;;
32824;SDS011;51060;42.640;24.356;2022-09-28T01:04:00;6.70;;;3.70;;
32824;SDS011;51060;42.640;24.356;2022-09-28T01:06:29;4.17;;;3.07;;
32824;SDS011;51060;42.640;24.356;2022-09-28T01:08:57;6.43;;;2.97;;
32824;SDS011;51060;42.640;24.356;2022-09-28T01:11:26;5.23;;;2.47;;
32824;SDS011;51060;42.640;24.356;2022-09-28T01:13:53;3.20;;;2.87;;
32824;SDS011;51060;42.640;24.356;2022-09-28T01:16:24;4.07;;;3.10;;
32824;SDS011;51060;42.640;24.356;2022-09-28T01:21:35;4.13;;;2.63;;
32824;SDS011;51060;42.640;24.356;2022-09-28T01:24:58;2.53;;;2.23;;
32824;SDS011;51060;42.640;24.356;2022-09-28T01:27:17;7.30;;;2.97;;
32824;SDS011;51060;42.640;24.356;2022-09-28T01:29:55;5.60;;;3.47;;
32824;SDS011;51060;42.640;24.356;2022-09-28T01:35:25;5.50;;;3.13;;
32824;SDS011;51060;42.640;24.356;2022-09-28T01:38:08;3.73;;;3.43;;
32824;SDS011;51060;42.640;24.356;2022-09-28T01:40:39;4.50;;;3.30;;
32824;SDS011;51060;42.640;24.356;2022-09-28T01:43:07;5.70;;;3.97;;
32824;SDS011;51060;42.640;24.356;2022-09-28T01:45:42;4.50;;;4.03;;
32824;SDS011;51060;42.640;24.356;2022-09-28T01:48:10;6.90;;;5.13;;
32824;SDS011;51060;42.640;24.356;2022-09-28T01:50:38;7.17;;;4.37;;
32824;SDS011;51060;42.640;24.356;2022-09-28T01:55:37;4.27;;;3.60;;
32824;SDS011;51060;42.640;24.356;2022-09-28T02:00:35;6.80;;;4.63;;
32824;SDS011;51060;42.640;24.356;2022-09-28T02:03:08;4.70;;;4.07;;
32824;SDS011;51060;42.640;24.356;2022-09-28T02:05:38;9.03;;;4.30;;
32824;SDS011;51060;42.640;24.356;2022-09-28T02:08:08;5.23;;;3.63;;
32824;SDS011;51060;42.640;24.356;2022-09-28T02:10:44;6.80;;;4.43;;
32824;SDS011;51060;42.640;24.356;2022-09-28T02:15:55;5.77;;;4.30;;
32824;SDS011;51060;42.640;24.356;2022-09-28T02:18:25;4.57;;;4.00;;
32824;SDS011;51060;42.640;24.356;2022-09-28T02:20:51;6.43;;;3.30;;
32824;SDS011;51060;42.640;24.356;2022-09-28T02:23:24;5.87;;;3.30;;
32824;SDS011;51060;42.640;24.356;2022-09-28T02:25:52;6.80;;;4.33;;
32824;SDS011;51060;42.640;24.356;2022-09-28T02:28:24;5.43;;;3.80;;
32824;SDS011;51060;42.640;24.356;2022-09-28T02:30:49;5.60;;;3.00;;
32824;SDS011;51060;42.640;24.356;2022-09-28T02:33:17;4.00;;;3.40;;
32824;SDS011;51060;42.640;24.356;2022-09-28T02:35:45;6.80;;;4.33;;
32824;SDS011;51060;42.640;24.356;2022-09-28T02:38:11;4.43;;;3.83;;
32824;SDS011;51060;42.640;24.356;2022-09-28T02:40:38;4.83;;;4.10;;
32824;SDS011;51060;42.640;24.356;2022-09-28T02:48:19;5.87;;;3.53;;
32824;SDS011;51060;42.640;24.356;2022-09-28T02:53:49;4.43;;;2.80;;
32824;SDS011;51060;42.640;24.356;2022-09-28T02:59:22;6.40;;;3.90;;
32824;SDS011;51060;42.640;24.356;2022-09-28T03:01:50;6.20;;;3.70;;
32824;SDS011;51060;42.640;24.356;2022-09-28T03:07:08;12.10;;;8.40;;
32824;SDS011;51060;42.640;24.356;2022-09-28T03:09:46;13.33;;;8.73;;
32824;SDS011;51060;42.640;24.356;2022-09-28T03:12:18;8.93;;;7.80;;
32824;SDS011;51060;42.640;24.356;2022-09-28T03:14:45;8.27;;;7.03;;
32824;SDS011;51060;42.640;24.356;2022-09-28T03:17:10;5.67;;;4.60;;
32824;SDS011;51060;42.640;24.356;2022-09-28T03:19:36;6.33;;;4.73;;
32824;SDS011;51060;42.640;24.356;2022-09-28T03:22:02;9.83;;;6.57;;
32824;SDS011;51060;42.640;24.356;2022-09-28T03:24:29;16.23;;;11.30;;
32824;SDS011;51060;42.640;24.356;2022-09-28T03:26:55;20.10;;;12.67;;
32824;SDS011;51060;42.640;24.356;2022-09-28T03:29:21;13.77;;;9.87;;
32824;SDS011;51060;42.640;24.356;2022-09-28T03:31:46;13.87;;;8.87;;
32824;SDS011;51060;42.640;24.356;2022-09-28T03:34:13;11.10;;;7.87;;
32824;SDS011;51060;42.640;24.356;2022-09-28T03:36:39;14.53;;;9.20;;
32824;SDS011;51060;42.640;24.356;2022-09-28T03:39:04;15.20;;;8.83;;
32824;SDS011;51060;42.640;24.356;2022-09-28T03:41:30;18.77;;;10.80;;
32824;SDS011;51060;42.640;24.356;2022-09-28T03:43:56;26.00;;;12.00;;
32824;SDS011;51060;42.640;24.356;2022-09-28T03:46:21;24.90;;;12.40;;
32824;SDS011;51060;42.640;24.356;2022-09-28T03:48:47;19.87;;;12.57;;
32824;SDS011;51060;42.640;24.356;2022-09-28T03:51:13;27.03;;;14.37;;
32824;SDS011;51060;42.640;24.356;2022-09-28T03:53:39;21.30;;;13.40;;
32824;SDS011;51060;42.640;24.356;2022-09-28T03:56:06;33.13;;;16.20;;
32824;SDS011;51060;42.640;24.356;2022-09-28T03:58:33;29.03;;;15.60;;
32824;SDS011;51060;42.640;24.356;2022-09-28T04:01:02;27.67;;;16.20;;
32824;SDS011;51060;42.640;24.356;2022-09-28T04:03:30;25.23;;;15.00;;
32824;SDS011;51060;42.640;24.356;2022-09-28T04:05:55;22.40;;;13.97;;
32824;SDS011;51060;42.640;24.356;2022-09-28T04:08:21;25.50;;;17.30;;
32824;SDS011;51060;42.640;24.356;2022-09-28T04:10:47;37.03;;;20.90;;
32824;SDS011;51060;42.640;24.356;2022-09-28T04:13:13;33.50;;;22.17;;
32824;SDS011;51060;42.640;24.356;2022-09-28T04:15:38;33.23;;;22.03;;
32824;SDS011;51060;42.640;24.356;2022-09-28T04:18:08;47.53;;;22.40;;
32824;SDS011;51060;42.640;24.356;2022-09-28T04:20:37;43.33;;;22.43;;
32824;SDS011;51060;42.640;24.356;2022-09-28T04:23:05;65.63;;;22.20;;
32824;SDS011;51060;42.640;24.356;2022-09-28T04:25:31;52.40;;;18.53;;
32824;SDS011;51060;42.640;24.356;2022-09-28T04:27:57;63.60;;;16.57;;
32824;SDS011;51060;42.640;24.356;2022-09-28T04:30:41;41.93;;;13.37;;
32824;SDS011;51060;42.640;24.356;2022-09-28T04:33:06;26.10;;;11.50;;
32824;SDS011;51060;42.640;24.356;2022-09-28T04:35:32;24.00;;;12.00;;
32824;SDS011;51060;42.640;24.356;2022-09-28T04:37:58;25.97;;;9.60;;
32824;SDS011;51060;42.640;24.356;2022-09-28T04:40:23;49.37;;;10.27;;
32824;SDS011;51060;42.640;24.356;2022-09-28T04:42:53;25.37;;;10.47;;
32824;SDS011;51060;42.640;24.356;2022-09-28T04:45:19;35.63;;;11.37;;
32824;SDS011;51060;42.640;24.356;2022-09-28T04:47:45;17.30;;;9.80;;
32824;SDS011;51060;42.640;24.356;2022-09-28T04:50:10;22.40;;;10.90;;
32824;SDS011;51060;42.640;24.356;2022-09-28T04:52:36;21.83;;;13.87;;
32824;SDS011;51060;42.640;24.356;2022-09-28T04:55:02;23.23;;;15.00;;
32824;SDS011;51060;42.640;24.356;2022-09-28T04:57:29;21.33;;;14.90;;
32824;SDS011;51060;42.640;24.356;2022-09-28T04:59:55;25.83;;;17.97;;
32824;SDS011;51060;42.640;24.356;2022-09-28T05:02:20;23.00;;;16.37;;
32824;SDS011;51060;42.640;24.356;2022-09-28T05:04:46;34.53;;;21.00;;
32824;SDS011;51060;42.640;24.356;2022-09-28T05:07:12;41.30;;;26.07;;
32824;SDS011;51060;42.640;24.356;2022-09-28T05:09:37;37.43;;;25.83;;
32824;SDS011;51060;42.640;24.356;2022-09-28T05:22:43;19.57;;;15.30;;
32824;SDS011;51060;42.640;24.356;2022-09-28T05:25:09;17.83;;;14.53;;
32824;SDS011;51060;42.640;24.356;2022-09-28T05:27:35;22.57;;;15.73;;
32824;SDS011;51060;42.640;24.356;2022-09-28T05:30:00;18.43;;;13.33;;
32824;SDS011;51060;42.640;24.356;2022-09-28T05:32:26;22.20;;;16.10;;
32824;SDS011;51060;42.640;24.356;2022-09-28T05:34:51;54.27;;;35.23;;
32824;SDS011;51060;42.640;24.356;2022-09-28T05:37:17;54.93;;;35.73;;
32824;SDS011;51060;42.640;24.356;2022-09-28T05:39:42;41.90;;;28.73;;
32824;SDS011;51060;42.640;24.356;2022-09-28T05:42:08;36.40;;;25.40;;
32824;SDS011;51060;42.640;24.356;2022-09-28T05:44:34;30.67;;;21.43;;
32824;SDS011;51060;42.640;24.356;2022-09-28T05:46:59;26.30;;;20.23;;
32824;SDS011;51060;42.640;24.356;2022-09-28T05:49:25;24.50;;;19.43;;
32824;SDS011;51060;42.640;24.356;2022-09-28T05:51:53;36.13;;;28.03;;
32824;SDS011;51060;42.640;24.356;2022-09-28T05:54:18;38.00;;;29.87;;
32824;SDS011;51060;42.640;24.356;2022-09-28T05:56:44;39.77;;;30.67;;
32824;SDS011;51060;42.640;24.356;2022-09-28T05:59:10;38.33;;;29.97;;
32824;SDS011;51060;42.640;24.356;2022-09-28T06:01:36;28.53;;;22.10;;
32824;SDS011;51060;42.640;24.356;2022-09-28T06:04:01;27.43;;;20.80;;
32824;SDS011;51060;42.640;24.356;2022-09-28T06:06:27;27.73;;;21.37;;
32824;SDS011;51060;42.640;24.356;2022-09-28T06:08:52;18.73;;;16.20;;
32824;SDS011;51060;42.640;24.356;2022-09-28T06:11:18;17.57;;;15.20;;
32824;SDS011;51060;42.640;24.356;2022-09-28T06:13:44;21.27;;;17.47;;
32824;SDS011;51060;42.640;24.356;2022-09-28T06:16:13;27.43;;;23.20;;
32824;SDS011;51060;42.640;24.356;2022-09-28T06:18:39;45.53;;;30.87;;
32824;SDS011;51060;42.640;24.356;2022-09-28T06:21:05;54.03;;;32.20;;
32824;SDS011;51060;42.640;24.356;2022-09-28T06:23:35;51.57;;;31.03;;
32824;SDS011;51060;42.640;24.356;2022-09-28T06:26:00;44.60;;;27.80;;
32824;SDS011;51060;42.640;24.356;2022-09-28T06:28:26;49.65;;;35.53;;
32824;SDS011;51060;42.640;24.356;2022-09-28T06:30:52;60.08;;;43.65;;
32824;SDS011;51060;42.640;24.356;2022-09-28T06:33:18;39.92;;;28.20;;
32824;SDS011;51060;42.640;24.356;2022-09-28T06:35:43;34.13;;;25.60;;
32824;SDS011;51060;42.640;24.356;2022-09-28T06:38:09;37.83;;;27.30;;
32824;SDS011;51060;42.640;24.356;2022-09-28T06:40:35;22.65;;;17.15;;
32824;SDS011;51060;42.640;24.356;2022-09-28T06:43:02;20.05;;;15.10;;
32824;SDS011;51060;42.640;24.356;2022-09-28T06:45:35;16.15;;;13.07;;
32824;SDS011;51060;42.640;24.356;2022-09-28T06:48:01;14.43;;;12.25;;
32824;SDS011;51060;42.640;24.356;2022-09-28T06:50:29;12.10;;;9.23;;
32824;SDS011;51060;42.640;24.356;2022-09-28T06:53:00;11.70;;;10.20;;
32824;SDS011;51060;42.640;24.356;2022-09-28T06:55:26;11.82;;;9.65;;
32824;SDS011;51060;42.640;24.356;2022-09-28T06:57:57;14.05;;;9.85;;
32824;SDS011;51060;42.640;24.356;2022-09-28T07:00:25;9.27;;;7.05;;
32824;SDS011;51060;42.640;24.356;2022-09-28T07:02:51;9.15;;;6.53;;
32824;SDS011;51060;42.640;24.356;2022-09-28T07:05:17;7.65;;;6.35;;
32824;SDS011;51060;42.640;24.356;2022-09-28T07:07:43;9.55;;;6.53;;
32824;SDS011;51060;42.640;24.356;2022-09-28T07:10:10;12.63;;;9.63;;
32824;SDS011;51060;42.640;24.356;2022-09-28T07:12:36;14.57;;;10.07;;
32824;SDS011;51060;42.640;24.356;2022-09-28T07:15:04;13.52;;;9.10;;
32824;SDS011;51060;42.640;24.356;2022-09-28T07:17:31;4.97;;;3.55;;
32824;SDS011;51060;42.640;24.356;2022-09-28T07:19:58;5.55;;;4.10;;
32824;SDS011;51060;42.640;24.356;2022-09-28T07:22:24;4.28;;;3.15;;
32824;SDS011;51060;42.640;24.356;2022-09-28T07:24:50;6.57;;;4.05;;
32824;SDS011;51060;42.640;24.356;2022-09-28T07:27:16;4.18;;;2.10;;
32824;SDS011;51060;42.640;24.356;2022-09-28T07:29:41;4.40;;;2.45;;
32824;SDS011;51060;42.640;24.356;2022-09-28T07:32:07;5.05;;;3.53;;
32824;SDS011;51060;42.640;24.356;2022-09-28T07:34:33;7.07;;;4.38;;
32824;SDS011;51060;42.640;24.356;2022-09-28T07:37:07;4.85;;;2.65;;
32824;SDS011;51060;42.640;24.356;2022-09-28T07:39:35;2.97;;;1.60;;
32824;SDS011;51060;42.640;24.356;2022-09-28T07:42:20;12.65;;;5.68;;
32824;SDS011;51060;42.640;24.356;2022-09-28T07:44:46;4.88;;;2.72;;
32824;SDS011;51060;42.640;24.356;2022-09-28T07:47:11;3.35;;;2.10;;
32824;SDS011;51060;42.640;24.356;2022-09-28T07:49:37;4.65;;;2.05;;
32824;SDS011;51060;42.640;24.356;2022-09-28T07:52:03;4.35;;;1.90;;
32824;SDS011;51060;42.640;24.356;2022-09-28T07:54:28;8.73;;;4.63;;
32824;SDS011;51060;42.640;24.356;2022-09-28T07:56:55;8.38;;;4.57;;
32824;SDS011;51060;42.640;24.356;2022-09-28T07:59:21;4.60;;;2.70;;
32824;SDS011;51060;42.640;24.356;2022-09-28T08:01:46;1.75;;;1.40;;
32824;SDS011;51060;42.640;24.356;2022-09-28T08:04:15;2.80;;;1.88;;
32824;SDS011;51060;42.640;24.356;2022-09-28T08:06:40;3.30;;;2.00;;
32824;SDS011;51060;42.640;24.356;2022-09-28T08:09:06;3.40;;;2.30;;
32824;SDS011;51060;42.640;24.356;2022-09-28T08:11:32;3.08;;;1.98;;
32824;SDS011;51060;42.640;24.356;2022-09-28T08:13:58;1.52;;;1.25;;
32824;SDS011;51060;42.640;24.356;2022-09-28T08:16:24;3.08;;;1.92;;
32824;SDS011;51060;42.640;24.356;2022-09-28T08:18:51;3.33;;;1.70;;
32824;SDS011;51060;42.640;24.356;2022-09-28T08:21:18;2.28;;;1.38;;
32824;SDS011;51060;42.640;24.356;2022-09-28T08:24:03;2.92;;;1.80;;
32824;SDS011;51060;42.640;24.356;2022-09-28T08:26:29;6.65;;;2.90;;
32824;SDS011;51060;42.640;24.356;2022-09-28T08:28:54;3.58;;;1.70;;
32824;SDS011;51060;42.640;24.356;2022-09-28T08:31:20;2.10;;;1.77;;
32824;SDS011;51060;42.640;24.356;2022-09-28T08:33:46;1.95;;;1.30;;
32824;SDS011;51060;42.640;24.356;2022-09-28T08:36:18;2.83;;;1.40;;
32824;SDS011;51060;42.640;24.356;2022-09-28T08:38:45;2.08;;;1.30;;
32824;SDS011;51060;42.640;24.356;2022-09-28T08:46:09;2.67;;;1.80;;
32824;SDS011;51060;42.640;24.356;2022-09-28T08:48:38;3.10;;;2.05;;
32824;SDS011;51060;42.640;24.356;2022-09-28T08:51:28;4.82;;;2.20;;
32824;SDS011;51060;42.640;24.356;2022-09-28T08:54:03;3.50;;;1.38;;
32824;SDS011;51060;42.640;24.356;2022-09-28T09:00:04;5.05;;;3.38;;
32824;SDS011;51060;42.640;24.356;2022-09-28T09:02:30;3.45;;;2.05;;
32824;SDS011;51060;42.640;24.356;2022-09-28T09:04:58;3.65;;;2.83;;
32824;SDS011;51060;42.640;24.356;2022-09-28T09:13:07;4.38;;;2.95;;
32824;SDS011;51060;42.640;24.356;2022-09-28T09:15:56;2.05;;;1.73;;
32824;SDS011;51060;42.640;24.356;2022-09-28T09:18:46;7.00;;;3.30;;
32824;SDS011;51060;42.640;24.356;2022-09-28T09:21:14;7.00;;;4.90;;
32824;SDS011;51060;42.640;24.356;2022-09-28T09:24:02;6.25;;;3.33;;
32824;SDS011;51060;42.640;24.356;2022-09-28T09:26:42;4.93;;;3.80;;
32824;SDS011;51060;42.640;24.356;2022-09-28T09:34:42;2.55;;;1.63;;
32824;SDS011;51060;42.640;24.356;2022-09-28T09:43:21;2.85;;;1.80;;
32824;SDS011;51060;42.640;24.356;2022-09-28T09:55:04;6.65;;;2.13;;
32824;SDS011;51060;42.640;24.356;2022-09-28T09:57:40;4.18;;;2.72;;
32824;SDS011;51060;42.640;24.356;2022-09-28T10:00:17;3.63;;;2.15;;
32824;SDS011;51060;42.640;24.356;2022-09-28T10:02:44;3.33;;;2.33;;
32824;SDS011;51060;42.640;24.356;2022-09-28T10:12:48;7.55;;;2.55;;
32824;SDS011;51060;42.640;24.356;2022-09-28T10:15:17;5.63;;;3.08;;
32824;SDS011;51060;42.640;24.356;2022-09-28T10:17:54;3.08;;;1.85;;
32824;SDS011;51060;42.640;24.356;2022-09-28T10:20:21;4.22;;;2.15;;
32824;SDS011;51060;42.640;24.356;2022-09-28T10:22:49;3.28;;;1.90;;
32824;SDS011;51060;42.640;24.356;2022-09-28T10:25:15;3.58;;;2.50;;
32824;SDS011;51060;42.640;24.356;2022-09-28T10:27:43;2.95;;;2.15;;
32824;SDS011;51060;42.640;24.356;2022-09-28T10:32:49;3.20;;;2.22;;
32824;SDS011;51060;42.640;24.356;2022-09-28T10:35:26;3.53;;;2.17;;
32824;SDS011;51060;42.640;24.356;2022-09-28T10:51:10;1.40;;;1.30;;
32824;SDS011;51060;42.640;24.356;2022-09-28T10:53:35;2.05;;;1.30;;
32824;SDS011;51060;42.640;24.356;2022-09-28T10:56:18;2.83;;;1.15;;
32824;SDS011;51060;42.640;24.356;2022-09-28T10:58:45;2.33;;;1.08;;
32824;SDS011;51060;42.640;24.356;2022-09-28T11:01:19;3.58;;;1.30;;
32824;SDS011;51060;42.640;24.356;2022-09-28T11:03:48;6.10;;;2.83;;
32824;SDS011;51060;42.640;24.356;2022-09-28T11:06:21;3.53;;;1.70;;
32824;SDS011;51060;42.640;24.356;2022-09-28T11:08:48;1.85;;;1.20;;
32824;SDS011;51060;42.640;24.356;2022-09-28T11:11:15;2.55;;;1.27;;
32824;SDS011;51060;42.640;24.356;2022-09-28T11:13:51;4.45;;;1.90;;
32824;SDS011;51060;42.640;24.356;2022-09-28T11:16:18;3.80;;;1.77;;
32824;SDS011;51060;42.640;24.356;2022-09-28T11:18:46;3.83;;;2.60;;
32824;SDS011;51060;42.640;24.356;2022-09-28T11:21:16;1.92;;;1.50;;
32824;SDS011;51060;42.640;24.356;2022-09-28T11:23:56;3.85;;;1.45;;
32824;SDS011;51060;42.640;24.356;2022-09-28T11:26:39;1.73;;;1.40;;
32824;SDS011;51060;42.640;24.356;2022-09-28T11:29:17;4.70;;;1.63;;
32824;SDS011;51060;42.640;24.356;2022-09-28T11:31:52;1.60;;;1.30;;
32824;SDS011;51060;42.640;24.356;2022-09-28T11:34:26;1.60;;;1.00;;
32824;SDS011;51060;42.640;24.356;2022-09-28T11:37:10;2.47;;;1.38;;
32824;SDS011;51060;42.640;24.356;2022-09-28T11:45:03;1.20;;;0.95;;
32824;SDS011;51060;42.640;24.356;2022-09-28T11:47:44;1.75;;;1.10;;
32824;SDS011;51060;42.640;24.356;2022-09-28T11:58:07;3.08;;;1.10;;
32824;SDS011;51060;42.640;24.356;2022-09-28T12:00:35;2.58;;;1.10;;
32824;SDS011;51060;42.640;24.356;2022-09-28T12:03:10;2.42;;;0.90;;
32824;SDS011;51060;42.640;24.356;2022-09-28T12:05:46;1.17;;;0.90;;
32824;SDS011;51060;42.640;24.356;2022-09-28T12:08:23;2.92;;;0.95;;
32824;SDS011;51060;42.640;24.356;2022-09-28T12:11:01;2.92;;;1.17;;
32824;SDS011;51060;42.640;24.356;2022-09-28T12:13:36;5.10;;;1.35;;
32824;SDS011;51060;42.640;24.356;2022-09-28T12:16:08;0.90;;;0.60;;
32824;SDS011;51060;42.640;24.356;2022-09-28T12:26:59;1.38;;;0.80;;
32824;SDS011;51060;42.640;24.356;2022-09-28T12:34:41;3.08;;;1.10;;
32824;SDS011;51060;42.640;24.356;2022-09-28T12:37:28;3.55;;;0.80;;
32824;SDS011;51060;42.640;24.356;2022-09-28T12:42:53;1.35;;;0.98;;
32824;SDS011;51060;42.640;24.356;2022-09-28T12:56:20;1.10;;;0.90;;
32824;SDS011;51060;42.640;24.356;2022-09-28T12:59:07;2.03;;;1.13;;
32824;SDS011;51060;42.640;24.356;2022-09-28T13:05:15;1.20;;;1.10;;
32824;SDS011;51060;42.640;24.356;2022-09-28T13:15:47;2.85;;;1.30;;
32824;SDS011;51060;42.640;24.356;2022-09-28T13:18:21;1.55;;;1.20;;
32824;SDS011;51060;42.640;24.356;2022-09-28T13:23:32;5.25;;;4.38;;
32824;SDS011;51060;42.640;24.356;2022-09-28T13:26:01;5.85;;;3.90;;
32824;SDS011;51060;42.640;24.356;2022-09-28T13:28:47;3.45;;;1.77;;
32824;SDS011;51060;42.640;24.356;2022-09-28T13:31:16;1.50;;;1.00;;
32824;SDS011;51060;42.640;24.356;2022-09-28T13:33:44;1.60;;;1.10;;
32824;SDS011;51060;42.640;24.356;2022-09-28T13:38:55;2.70;;;1.15;;
32824;SDS011;51060;42.640;24.356;2022-09-28T13:41:30;3.15;;;2.50;;
32824;SDS011;51060;42.640;24.356;2022-09-28T14:02:52;12.88;;;8.23;;
32824;SDS011;51060;42.640;24.356;2022-09-28T14:11:29;3.13;;;1.70;;
32824;SDS011;51060;42.640;24.356;2022-09-28T14:16:40;2.85;;;1.25;;
32824;SDS011;51060;42.640;24.356;2022-09-28T14:32:36;14.68;;;7.97;;
32824;SDS011;51060;42.640;24.356;2022-09-28T14:35:04;9.90;;;4.80;;
32824;SDS011;51060;42.640;24.356;2022-09-28T14:37:37;9.60;;;5.13;;
32824;SDS011;51060;42.640;24.356;2022-09-28T14:43:20;5.55;;;2.58;;
32824;SDS011;51060;42.640;24.356;2022-09-28T14:48:59;7.65;;;6.65;;
32824;SDS011;51060;42.640;24.356;2022-09-28T14:54:54;6.55;;;3.97;;
32824;SDS011;51060;42.640;24.356;2022-09-28T14:57:15;8.82;;;6.43;;
32824;SDS011;51060;42.640;24.356;2022-09-28T14:59:48;14.18;;;9.52;;
32824;SDS011;51060;42.640;24.356;2022-09-28T15:02:18;12.80;;;9.10;;
32824;SDS011;51060;42.640;24.356;2022-09-28T15:04:53;13.07;;;8.13;;
32824;SDS011;51060;42.640;24.356;2022-09-28T15:07:24;11.73;;;6.68;;
32824;SDS011;51060;42.640;24.356;2022-09-28T15:09:57;11.57;;;7.47;;
32824;SDS011;51060;42.640;24.356;2022-09-28T15:12:30;10.70;;;7.50;;
32824;SDS011;51060;42.640;24.356;2022-09-28T15:15:00;12.48;;;7.50;;
32824;SDS011;51060;42.640;24.356;2022-09-28T15:17:28;10.52;;;6.45;;
32824;SDS011;51060;42.640;24.356;2022-09-28T15:22:58;20.98;;;16.05;;
32824;SDS011;51060;42.640;24.356;2022-09-28T15:25:27;14.70;;;11.57;;
32824;SDS011;51060;42.640;24.356;2022-09-28T15:27:55;10.23;;;7.32;;
32824;SDS011;51060;42.640;24.356;2022-09-28T15:32:56;4.93;;;2.60;;
32824;SDS011;51060;42.640;24.356;2022-09-28T15:35:44;5.43;;;2.72;;
32824;SDS011;51060;42.640;24.356;2022-09-28T15:38:14;12.95;;;9.63;;
32824;SDS011;51060;42.640;24.356;2022-09-28T15:40:41;17.70;;;12.57;;
32824;SDS011;51060;42.640;24.356;2022-09-28T15:46:13;15.93;;;10.35;;
32824;SDS011;51060;42.640;24.356;2022-09-28T15:48:46;9.77;;;5.60;;
32824;SDS011;51060;42.640;24.356;2022-09-28T15:51:23;8.02;;;5.57;;
32824;SDS011;51060;42.640;24.356;2022-09-28T15:56:53;16.50;;;11.98;;
32824;SDS011;51060;42.640;24.356;2022-09-28T15:59:25;23.95;;;15.23;;
32824;SDS011;51060;42.640;24.356;2022-09-28T16:15:13;11.75;;;7.97;;
32824;SDS011;51060;42.640;24.356;2022-09-28T16:17:48;8.35;;;4.28;;
32824;SDS011;51060;42.640;24.356;2022-09-28T16:22:49;4.82;;;2.95;;
32824;SDS011;51060;42.640;24.356;2022-09-28T16:25:16;4.63;;;2.20;;
32824;SDS011;51060;42.640;24.356;2022-09-28T16:27:43;4.82;;;2.08;;
32824;SDS011;51060;42.640;24.356;2022-09-28T16:30:12;4.30;;;2.30;;
32824;SDS011;51060;42.640;24.356;2022-09-28T16:32:47;6.47;;;2.30;;
32824;SDS011;51060;42.640;24.356;2022-09-28T16:38:11;5.65;;;2.95;;
32824;SDS011;51060;42.640;24.356;2022-09-28T16:40:41;20.30;;;11.80;;
32824;SDS011;51060;42.640;24.356;2022-09-28T16:43:17;15.70;;;10.18;;
32824;SDS011;51060;42.640;24.356;2022-09-28T16:45:45;8.23;;;3.70;;
32824;SDS011;51060;42.640;24.356;2022-09-28T16:48:14;9.40;;;4.47;;
32824;SDS011;51060;42.640;24.356;2022-09-28T16:50:43;5.50;;;3.97;;
32824;SDS011;51060;42.640;24.356;2022-09-28T16:53:15;15.35;;;8.23;;
32824;SDS011;51060;42.640;24.356;2022-09-28T16:56:02;8.20;;;4.68;;
32824;SDS011;51060;42.640;24.356;2022-09-28T16:58:29;4.72;;;3.58;;
32824;SDS011;51060;42.640;24.356;2022-09-28T17:00:56;8.02;;;4.60;;
32824;SDS011;51060;42.640;24.356;2022-09-28T17:03:22;6.93;;;3.47;;
32824;SDS011;51060;42.640;24.356;2022-09-28T17:05:49;3.97;;;3.58;;
32824;SDS011;51060;42.640;24.356;2022-09-28T17:08:16;4.55;;;3.20;;
32824;SDS011;51060;42.640;24.356;2022-09-28T17:13:16;8.50;;;4.22;;
32824;SDS011;51060;42.640;24.356;2022-09-28T17:15:42;6.13;;;4.55;;
32824;SDS011;51060;42.640;24.356;2022-09-28T17:18:12;6.38;;;4.28;;
32824;SDS011;51060;42.640;24.356;2022-09-28T17:20:38;6.30;;;4.07;;
32824;SDS011;51060;42.640;24.356;2022-09-28T17:23:04;7.78;;;3.83;;
32824;SDS011;51060;42.640;24.356;2022-09-28T17:25:30;5.70;;;3.80;;
32824;SDS011;51060;42.640;24.356;2022-09-28T17:27:56;7.75;;;4.97;;
32824;SDS011;51060;42.640;24.356;2022-09-28T17:30:22;8.70;;;5.47;;
32824;SDS011;51060;42.640;24.356;2022-09-28T17:32:48;4.97;;;4.05;;
32824;SDS011;51060;42.640;24.356;2022-09-28T17:35:14;10.32;;;3.42;;
32824;SDS011;51060;42.640;24.356;2022-09-28T17:37:41;7.82;;;3.13;;
32824;SDS011;51060;42.640;24.356;2022-09-28T17:40:15;21.50;;;13.55;;
32824;SDS011;51060;42.640;24.356;2022-09-28T17:42:42;13.13;;;9.63;;
32824;SDS011;51060;42.640;24.356;2022-09-28T17:45:07;14.25;;;9.90;;
32824;SDS011;51060;42.640;24.356;2022-09-28T17:47:33;11.50;;;8.70;;
32824;SDS011;51060;42.640;24.356;2022-09-28T17:49:59;11.80;;;7.72;;
32824;SDS011;51060;42.640;24.356;2022-09-28T17:52:24;15.18;;;10.57;;
32824;SDS011;51060;42.640;24.356;2022-09-28T17:54:50;13.80;;;10.25;;
32824;SDS011;51060;42.640;24.356;2022-09-28T17:57:15;13.80;;;10.45;;
32824;SDS011;51060;42.640;24.356;2022-09-28T17:59:41;14.15;;;10.10;;
32824;SDS011;51060;42.640;24.356;2022-09-28T18:02:09;12.30;;;9.07;;
32824;SDS011;51060;42.640;24.356;2022-09-28T18:04:35;11.25;;;8.55;;
32824;SDS011;51060;42.640;24.356;2022-09-28T18:07:01;10.13;;;8.23;;
32824;SDS011;51060;42.640;24.356;2022-09-28T18:09:26;10.05;;;8.45;;
32824;SDS011;51060;42.640;24.356;2022-09-28T18:12:02;9.45;;;6.75;;
32824;SDS011;51060;42.640;24.356;2022-09-28T18:14:29;10.70;;;6.80;;
32824;SDS011;51060;42.640;24.356;2022-09-28T18:16:55;11.18;;;5.95;;
32824;SDS011;51060;42.640;24.356;2022-09-28T18:19:20;10.32;;;6.60;;
32824;SDS011;51060;42.640;24.356;2022-09-28T18:21:46;12.32;;;7.38;;
32824;SDS011;51060;42.640;24.356;2022-09-28T18:24:12;9.48;;;6.10;;
32824;SDS011;51060;42.640;24.356;2022-09-28T18:26:38;11.27;;;8.43;;
32824;SDS011;51060;42.640;24.356;2022-09-28T18:29:03;24.98;;;14.35;;
32824;SDS011;51060;42.640;24.356;2022-09-28T18:31:29;71.85;;;18.77;;
32824;SDS011;51060;42.640;24.356;2022-09-28T18:33:57;43.10;;;16.83;;
32824;SDS011;51060;42.640;24.356;2022-09-28T18:36:31;11.90;;;9.38;;
32824;SDS011;51060;42.640;24.356;2022-09-28T18:38:59;15.50;;;12.75;;
32824;SDS011;51060;42.640;24.356;2022-09-28T18:41:26;16.67;;;13.88;;